sensor_id;sensor_type;location;lat;lon;timestamp;P1;durP1;ratioP1;P2;durP2;ratioP2
3817;SDS011;1924;48.078;11.516;2023-08-06T00:01:28;35.87;;;0.80;;
3817;SDS011;1924;48.078;11.516;2023-08-06T00:03:55;36.20;;;0.80;;
3817;SDS011;1924;48.078;11.516;2023-08-06T00:06:22;36.07;;;0.80;;
3817;SDS011;1924;48.078;11.516;2023-08-06T00:08:52;35.77;;;0.80;;
3817;SDS011;1924;48.078;11.516;2023-08-06T00:11:21;36.23;;;0.80;;
3817;SDS011;1924;48.078;11.516;2023-08-06T00:13:49;35.93;;;0.80;;
3817;SDS011;1924;48.078;11.516;2023-08-06T00:16:16;36.47;;;0.80;;
3817;SDS011;1924;48.078;11.516;2023-08-06T00:18:43;36.13;;;0.80;;
3817;SDS011;1924;48.078;11.516;2023-08-06T00:21:09;36.10;;;0.80;;
3817;SDS011;1924;48.078;11.516;2023-08-06T00:23:38;36.17;;;0.80;;
3817;SDS011;1924;48.078;11.516;2023-08-06T00:26:04;36.33;;;0.87;;
3817;SDS011;1924;48.078;11.516;2023-08-06T00:28:31;36.40;;;0.80;;
3817;SDS011;1924;48.078;11.516;2023-08-06T00:31:00;36.27;;;0.80;;
3817;SDS011;1924;48.078;11.516;2023-08-06T00:33:27;36.23;;;0.80;;
3817;SDS011;1924;48.078;11.516;2023-08-06T00:35:54;36.17;;;0.80;;
3817;SDS011;1924;48.078;11.516;2023-08-06T00:38:21;36.07;;;0.80;;
3817;SDS011;1924;48.078;11.516;2023-08-06T00:40:47;36.27;;;0.80;;
3817;SDS011;1924;48.078;11.516;2023-08-06T04:06:11;36.33;;;0.90;;
3817;SDS011;1924;48.078;11.516;2023-08-06T04:08:38;36.00;;;0.90;;
3817;SDS011;1924;48.078;11.516;2023-08-06T04:11:05;36.37;;;0.80;;
3817;SDS011;1924;48.078;11.516;2023-08-06T04:13:33;36.20;;;0.87;;
3817;SDS011;1924;48.078;11.516;2023-08-06T04:16:00;36.37;;;0.90;;
3817;SDS011;1924;48.078;11.516;2023-08-06T04:18:28;36.40;;;0.90;;
3817;SDS011;1924;48.078;11.516;2023-08-06T04:20:54;36.40;;;0.90;;
3817;SDS011;1924;48.078;11.516;2023-08-06T04:23:23;36.30;;;0.90;;
3817;SDS011;1924;48.078;11.516;2023-08-06T04:25:50;36.03;;;0.87;;
3817;SDS011;1924;48.078;11.516;2023-08-06T04:28:17;36.37;;;0.80;;
3817;SDS011;1924;48.078;11.516;2023-08-06T04:30:44;36.43;;;0.90;;
3817;SDS011;1924;48.078;11.516;2023-08-06T04:33:10;36.17;;;0.80;;
3817;SDS011;1924;48.078;11.516;2023-08-06T04:35:37;36.40;;;0.90;;
3817;SDS011;1924;48.078;11.516;2023-08-06T04:38:04;36.37;;;0.90;;
3817;SDS011;1924;48.078;11.516;2023-08-06T04:40:34;36.17;;;0.90;;
3817;SDS011;1924;48.078;11.516;2023-08-06T04:43:01;36.10;;;0.90;;
3817;SDS011;1924;48.078;11.516;2023-08-06T04:45:28;36.30;;;0.90;;
3817;SDS011;1924;48.078;11.516;2023-08-06T04:47:55;36.17;;;0.90;;
3817;SDS011;1924;48.078;11.516;2023-08-06T04:52:48;36.30;;;0.83;;
3817;SDS011;1924;48.078;11.516;2023-08-06T04:55:14;36.17;;;0.90;;
3817;SDS011;1924;48.078;11.516;2023-08-06T04:57:43;35.97;;;0.90;;
3817;SDS011;1924;48.078;11.516;2023-08-06T05:00:10;36.05;;;0.90;;
3817;SDS011;1924;48.078;11.516;2023-08-06T05:02:38;36.20;;;0.80;;
3817;SDS011;1924;48.078;11.516;2023-08-06T05:05:05;36.00;;;0.80;;
3817;SDS011;1924;48.078;11.516;2023-08-06T05:10:07;35.97;;;0.90;;
3817;SDS011;1924;48.078;11.516;2023-08-06T05:12:36;36.40;;;0.80;;
3817;SDS011;1924;48.078;11.516;2023-08-06T05:15:05;35.77;;;0.80;;
3817;SDS011;1924;48.078;11.516;2023-08-06T05:17:32;36.03;;;0.87;;
3817;SDS011;1924;48.078;11.516;2023-08-06T05:22:25;36.03;;;0.90;;
3817;SDS011;1924;48.078;11.516;2023-08-06T05:24:52;36.30;;;0.80;;
3817;SDS011;1924;48.078;11.516;2023-08-06T05:27:18;35.67;;;0.87;;
3817;SDS011;1924;48.078;11.516;2023-08-06T05:29:47;36.07;;;0.80;;
3817;SDS011;1924;48.078;11.516;2023-08-06T05:32:15;36.20;;;0.90;;
3817;SDS011;1924;48.078;11.516;2023-08-06T05:37:18;36.20;;;0.80;;
3817;SDS011;1924;48.078;11.516;2023-08-06T05:39:44;35.97;;;0.90;;
3817;SDS011;1924;48.078;11.516;2023-08-06T05:42:13;36.10;;;0.80;;
3817;SDS011;1924;48.078;11.516;2023-08-06T05:47:16;36.07;;;0.90;;
3817;SDS011;1924;48.078;11.516;2023-08-06T05:54:48;35.83;;;0.87;;
3817;SDS011;1924;48.078;11.516;2023-08-06T06:02:20;35.87;;;0.87;;
3817;SDS011;1924;48.078;11.516;2023-08-06T06:04:48;35.97;;;0.80;;
3817;SDS011;1924;48.078;11.516;2023-08-06T06:07:14;35.90;;;0.90;;
3817;SDS011;1924;48.078;11.516;2023-08-06T06:09:41;35.83;;;0.80;;
3817;SDS011;1924;48.078;11.516;2023-08-06T06:12:08;35.60;;;0.83;;
3817;SDS011;1924;48.078;11.516;2023-08-06T06:14:35;35.83;;;0.80;;
3817;SDS011;1924;48.078;11.516;2023-08-06T06:17:02;35.90;;;0.80;;
3817;SDS011;1924;48.078;11.516;2023-08-06T06:25:29;35.67;;;0.80;;
3817;SDS011;1924;48.078;11.516;2023-08-06T06:27:56;35.80;;;0.80;;
3817;SDS011;1924;48.078;11.516;2023-08-06T06:30:24;35.67;;;0.80;;
3817;SDS011;1924;48.078;11.516;2023-08-06T06:32:51;35.73;;;0.80;;
3817;SDS011;1924;48.078;11.516;2023-08-06T06:35:18;35.67;;;0.80;;
3817;SDS011;1924;48.078;11.516;2023-08-06T06:37:45;35.77;;;0.80;;
3817;SDS011;1924;48.078;11.516;2023-08-06T06:40:12;35.73;;;0.80;;
3817;SDS011;1924;48.078;11.516;2023-08-06T06:42:40;35.70;;;0.80;;
3817;SDS011;1924;48.078;11.516;2023-08-06T06:45:09;35.57;;;0.80;;
3817;SDS011;1924;48.078;11.516;2023-08-06T06:47:36;35.83;;;0.80;;
3817;SDS011;1924;48.078;11.516;2023-08-06T06:50:02;35.77;;;0.80;;
3817;SDS011;1924;48.078;11.516;2023-08-06T06:52:30;35.80;;;0.80;;
3817;SDS011;1924;48.078;11.516;2023-08-06T06:54:56;35.67;;;0.80;;
3817;SDS011;1924;48.078;11.516;2023-08-06T06:57:23;35.50;;;0.80;;
3817;SDS011;1924;48.078;11.516;2023-08-06T06:59:51;35.63;;;0.80;;
3817;SDS011;1924;48.078;11.516;2023-08-06T07:02:18;35.47;;;0.80;;
3817;SDS011;1924;48.078;11.516;2023-08-06T07:04:45;35.67;;;0.80;;
3817;SDS011;1924;48.078;11.516;2023-08-06T07:07:12;35.47;;;0.80;;
3817;SDS011;1924;48.078;11.516;2023-08-06T07:09:39;35.43;;;0.80;;
3817;SDS011;1924;48.078;11.516;2023-08-06T07:12:05;35.43;;;0.80;;
3817;SDS011;1924;48.078;11.516;2023-08-06T07:14:35;35.50;;;0.80;;
3817;SDS011;1924;48.078;11.516;2023-08-06T07:17:03;35.47;;;0.80;;
3817;SDS011;1924;48.078;11.516;2023-08-06T07:19:31;35.40;;;0.80;;
3817;SDS011;1924;48.078;11.516;2023-08-06T07:21:57;35.17;;;0.80;;
3817;SDS011;1924;48.078;11.516;2023-08-06T07:24:24;35.43;;;0.80;;
3817;SDS011;1924;48.078;11.516;2023-08-06T07:26:53;35.37;;;0.80;;
3817;SDS011;1924;48.078;11.516;2023-08-06T07:29:28;35.37;;;0.80;;
3817;SDS011;1924;48.078;11.516;2023-08-06T07:31:55;35.45;;;0.80;;
3817;SDS011;1924;48.078;11.516;2023-08-06T07:36:58;35.43;;;0.80;;
3817;SDS011;1924;48.078;11.516;2023-08-06T07:39:25;35.50;;;0.80;;
3817;SDS011;1924;48.078;11.516;2023-08-06T07:41:55;35.33;;;0.80;;
3817;SDS011;1924;48.078;11.516;2023-08-06T07:44:21;35.17;;;0.80;;
3817;SDS011;1924;48.078;11.516;2023-08-06T07:46:50;35.37;;;0.80;;
3817;SDS011;1924;48.078;11.516;2023-08-06T07:49:17;35.07;;;0.80;;
3817;SDS011;1924;48.078;11.516;2023-08-06T07:51:45;35.27;;;0.80;;
3817;SDS011;1924;48.078;11.516;2023-08-06T07:54:13;35.37;;;0.80;;
3817;SDS011;1924;48.078;11.516;2023-08-06T07:56:40;35.50;;;0.80;;
3817;SDS011;1924;48.078;11.516;2023-08-06T07:59:07;35.33;;;0.80;;
3817;SDS011;1924;48.078;11.516;2023-08-06T08:01:34;35.30;;;0.80;;
3817;SDS011;1924;48.078;11.516;2023-08-06T08:04:01;35.23;;;0.80;;
3817;SDS011;1924;48.078;11.516;2023-08-06T08:06:27;35.30;;;0.80;;
3817;SDS011;1924;48.078;11.516;2023-08-06T08:08:54;35.20;;;0.80;;
3817;SDS011;1924;48.078;11.516;2023-08-06T08:11:23;35.23;;;0.80;;
3817;SDS011;1924;48.078;11.516;2023-08-06T08:13:51;35.07;;;0.80;;
3817;SDS011;1924;48.078;11.516;2023-08-06T08:16:18;34.97;;;0.80;;
3817;SDS011;1924;48.078;11.516;2023-08-06T08:18:44;35.20;;;0.80;;
3817;SDS011;1924;48.078;11.516;2023-08-06T08:21:11;35.10;;;0.80;;
3817;SDS011;1924;48.078;11.516;2023-08-06T08:23:38;35.00;;;0.80;;
3817;SDS011;1924;48.078;11.516;2023-08-06T08:26:06;35.20;;;0.80;;
3817;SDS011;1924;48.078;11.516;2023-08-06T08:28:34;35.07;;;0.80;;
3817;SDS011;1924;48.078;11.516;2023-08-06T08:31:01;35.13;;;0.80;;
3817;SDS011;1924;48.078;11.516;2023-08-06T08:33:28;35.20;;;0.80;;
3817;SDS011;1924;48.078;11.516;2023-08-06T08:35:55;35.10;;;0.80;;
3817;SDS011;1924;48.078;11.516;2023-08-06T08:38:22;35.03;;;0.80;;
3817;SDS011;1924;48.078;11.516;2023-08-06T08:40:49;35.10;;;0.80;;
3817;SDS011;1924;48.078;11.516;2023-08-06T08:43:20;35.10;;;0.80;;
3817;SDS011;1924;48.078;11.516;2023-08-06T08:45:49;34.93;;;0.80;;
3817;SDS011;1924;48.078;11.516;2023-08-06T08:48:17;35.03;;;0.80;;
3817;SDS011;1924;48.078;11.516;2023-08-06T08:50:45;35.00;;;0.80;;
3817;SDS011;1924;48.078;11.516;2023-08-06T08:53:13;34.90;;;0.80;;
3817;SDS011;1924;48.078;11.516;2023-08-06T08:55:41;34.87;;;0.80;;
3817;SDS011;1924;48.078;11.516;2023-08-06T08:58:09;35.10;;;0.80;;
3817;SDS011;1924;48.078;11.516;2023-08-06T09:00:36;34.80;;;0.80;;
3817;SDS011;1924;48.078;11.516;2023-08-06T09:03:05;34.90;;;0.80;;
3817;SDS011;1924;48.078;11.516;2023-08-06T09:05:32;34.77;;;0.80;;
3817;SDS011;1924;48.078;11.516;2023-08-06T09:08:01;34.80;;;0.80;;
3817;SDS011;1924;48.078;11.516;2023-08-06T09:10:29;34.63;;;0.80;;
3817;SDS011;1924;48.078;11.516;2023-08-06T09:12:56;34.73;;;0.80;;
3817;SDS011;1924;48.078;11.516;2023-08-06T09:15:27;34.53;;;0.80;;
3817;SDS011;1924;48.078;11.516;2023-08-06T09:17:54;34.80;;;0.80;;
3817;SDS011;1924;48.078;11.516;2023-08-06T09:20:23;34.60;;;0.80;;
3817;SDS011;1924;48.078;11.516;2023-08-06T09:22:50;34.63;;;0.80;;
3817;SDS011;1924;48.078;11.516;2023-08-06T09:25:20;34.70;;;0.80;;
3817;SDS011;1924;48.078;11.516;2023-08-06T09:27:50;34.40;;;0.80;;
3817;SDS011;1924;48.078;11.516;2023-08-06T09:30:28;34.73;;;0.80;;
3817;SDS011;1924;48.078;11.516;2023-08-06T09:32:57;34.60;;;0.80;;
3817;SDS011;1924;48.078;11.516;2023-08-06T09:35:27;34.67;;;0.80;;
3817;SDS011;1924;48.078;11.516;2023-08-06T09:37:54;34.73;;;0.80;;
3817;SDS011;1924;48.078;11.516;2023-08-06T09:40:25;34.60;;;0.80;;
3817;SDS011;1924;48.078;11.516;2023-08-06T09:42:53;34.60;;;0.80;;
3817;SDS011;1924;48.078;11.516;2023-08-06T09:45:22;34.70;;;0.80;;
3817;SDS011;1924;48.078;11.516;2023-08-06T09:47:49;34.47;;;0.80;;
3817;SDS011;1924;48.078;11.516;2023-08-06T09:50:17;34.60;;;0.80;;
3817;SDS011;1924;48.078;11.516;2023-08-06T09:52:45;34.30;;;0.80;;
3817;SDS011;1924;48.078;11.516;2023-08-06T09:55:13;34.43;;;0.80;;
3817;SDS011;1924;48.078;11.516;2023-08-06T09:57:41;34.27;;;0.80;;
3817;SDS011;1924;48.078;11.516;2023-08-06T10:00:08;34.40;;;0.80;;
3817;SDS011;1924;48.078;11.516;2023-08-06T10:02:37;34.23;;;0.80;;
3817;SDS011;1924;48.078;11.516;2023-08-06T10:05:04;34.20;;;0.80;;
3817;SDS011;1924;48.078;11.516;2023-08-06T10:07:31;34.20;;;0.80;;
3817;SDS011;1924;48.078;11.516;2023-08-06T10:10:00;34.30;;;0.80;;
3817;SDS011;1924;48.078;11.516;2023-08-06T10:12:29;34.20;;;0.80;;
3817;SDS011;1924;48.078;11.516;2023-08-06T10:14:59;33.87;;;0.80;;
3817;SDS011;1924;48.078;11.516;2023-08-06T10:17:29;33.97;;;0.80;;
3817;SDS011;1924;48.078;11.516;2023-08-06T10:19:59;33.93;;;0.80;;
3817;SDS011;1924;48.078;11.516;2023-08-06T10:22:26;33.77;;;0.80;;
3817;SDS011;1924;48.078;11.516;2023-08-06T10:24:53;33.80;;;0.80;;
3817;SDS011;1924;48.078;11.516;2023-08-06T10:27:23;33.73;;;0.80;;
3817;SDS011;1924;48.078;11.516;2023-08-06T10:29:55;33.77;;;0.80;;
3817;SDS011;1924;48.078;11.516;2023-08-06T10:32:31;33.60;;;0.80;;
3817;SDS011;1924;48.078;11.516;2023-08-06T10:35:27;33.80;;;0.80;;
3817;SDS011;1924;48.078;11.516;2023-08-06T10:37:57;33.67;;;0.80;;
3817;SDS011;1924;48.078;11.516;2023-08-06T10:40:25;33.77;;;0.80;;
3817;SDS011;1924;48.078;11.516;2023-08-06T10:42:53;33.63;;;0.80;;
3817;SDS011;1924;48.078;11.516;2023-08-06T10:45:20;33.57;;;0.80;;
3817;SDS011;1924;48.078;11.516;2023-08-06T10:47:49;33.80;;;0.80;;
3817;SDS011;1924;48.078;11.516;2023-08-06T10:50:16;33.50;;;0.80;;
3817;SDS011;1924;48.078;11.516;2023-08-06T10:52:43;33.77;;;0.80;;
3817;SDS011;1924;48.078;11.516;2023-08-06T10:55:10;33.27;;;0.80;;
3817;SDS011;1924;48.078;11.516;2023-08-06T10:57:37;33.50;;;0.80;;
3817;SDS011;1924;48.078;11.516;2023-08-06T11:00:06;33.57;;;0.80;;
3817;SDS011;1924;48.078;11.516;2023-08-06T11:02:34;33.60;;;0.80;;
3817;SDS011;1924;48.078;11.516;2023-08-06T11:05:05;33.53;;;0.80;;
3817;SDS011;1924;48.078;11.516;2023-08-06T11:07:33;33.70;;;0.80;;
3817;SDS011;1924;48.078;11.516;2023-08-06T11:10:03;33.67;;;0.80;;
3817;SDS011;1924;48.078;11.516;2023-08-06T11:12:30;33.50;;;0.80;;
3817;SDS011;1924;48.078;11.516;2023-08-06T11:14:58;33.70;;;0.80;;
3817;SDS011;1924;48.078;11.516;2023-08-06T11:17:28;33.63;;;0.80;;
3817;SDS011;1924;48.078;11.516;2023-08-06T11:19:58;33.50;;;0.80;;
3817;SDS011;1924;48.078;11.516;2023-08-06T11:22:26;33.60;;;0.80;;
3817;SDS011;1924;48.078;11.516;2023-08-06T11:24:52;33.57;;;0.80;;
3817;SDS011;1924;48.078;11.516;2023-08-06T11:27:20;33.57;;;0.80;;
3817;SDS011;1924;48.078;11.516;2023-08-06T11:29:46;33.70;;;0.80;;
3817;SDS011;1924;48.078;11.516;2023-08-06T11:32:13;33.60;;;0.80;;
3817;SDS011;1924;48.078;11.516;2023-08-06T11:34:41;33.60;;;0.80;;
3817;SDS011;1924;48.078;11.516;2023-08-06T11:37:10;33.40;;;0.80;;
3817;SDS011;1924;48.078;11.516;2023-08-06T11:39:38;33.60;;;0.80;;
3817;SDS011;1924;48.078;11.516;2023-08-06T11:42:10;33.50;;;0.80;;
3817;SDS011;1924;48.078;11.516;2023-08-06T11:44:38;33.60;;;0.80;;
3817;SDS011;1924;48.078;11.516;2023-08-06T11:47:11;33.60;;;0.80;;
3817;SDS011;1924;48.078;11.516;2023-08-06T11:49:40;33.67;;;0.80;;
3817;SDS011;1924;48.078;11.516;2023-08-06T11:52:10;33.60;;;0.80;;
3817;SDS011;1924;48.078;11.516;2023-08-06T11:54:39;33.67;;;0.80;;
3817;SDS011;1924;48.078;11.516;2023-08-06T11:57:06;33.67;;;0.80;;
3817;SDS011;1924;48.078;11.516;2023-08-06T11:59:34;33.53;;;0.80;;
3817;SDS011;1924;48.078;11.516;2023-08-06T12:02:01;33.70;;;0.80;;
3817;SDS011;1924;48.078;11.516;2023-08-06T12:04:30;33.47;;;0.80;;
3817;SDS011;1924;48.078;11.516;2023-08-06T12:07:05;33.60;;;0.80;;
3817;SDS011;1924;48.078;11.516;2023-08-06T12:09:33;33.60;;;0.80;;
3817;SDS011;1924;48.078;11.516;2023-08-06T12:12:01;33.60;;;0.80;;
3817;SDS011;1924;48.078;11.516;2023-08-06T12:14:29;33.53;;;0.80;;
3817;SDS011;1924;48.078;11.516;2023-08-06T12:16:56;33.70;;;0.80;;
3817;SDS011;1924;48.078;11.516;2023-08-06T12:19:22;33.60;;;0.80;;
3817;SDS011;1924;48.078;11.516;2023-08-06T12:21:51;33.70;;;0.80;;
3817;SDS011;1924;48.078;11.516;2023-08-06T12:24:19;33.50;;;0.80;;
3817;SDS011;1924;48.078;11.516;2023-08-06T12:26:46;33.53;;;0.80;;
3817;SDS011;1924;48.078;11.516;2023-08-06T12:29:13;33.70;;;0.80;;
3817;SDS011;1924;48.078;11.516;2023-08-06T12:31:39;33.70;;;0.80;;
3817;SDS011;1924;48.078;11.516;2023-08-06T12:34:06;33.60;;;0.80;;
3817;SDS011;1924;48.078;11.516;2023-08-06T12:36:33;33.47;;;0.80;;
3817;SDS011;1924;48.078;11.516;2023-08-06T12:38:59;33.60;;;0.80;;
3817;SDS011;1924;48.078;11.516;2023-08-06T12:41:27;33.60;;;0.80;;
3817;SDS011;1924;48.078;11.516;2023-08-06T12:43:54;33.60;;;0.80;;
3817;SDS011;1924;48.078;11.516;2023-08-06T12:46:21;33.57;;;0.80;;
3817;SDS011;1924;48.078;11.516;2023-08-06T12:48:48;33.37;;;0.80;;
3817;SDS011;1924;48.078;11.516;2023-08-06T12:51:14;33.80;;;0.80;;
3817;SDS011;1924;48.078;11.516;2023-08-06T12:53:41;33.80;;;0.80;;
3817;SDS011;1924;48.078;11.516;2023-08-06T12:56:08;33.87;;;0.80;;
3817;SDS011;1924;48.078;11.516;2023-08-06T12:58:36;33.97;;;0.80;;
3817;SDS011;1924;48.078;11.516;2023-08-06T13:01:04;34.00;;;0.80;;
3817;SDS011;1924;48.078;11.516;2023-08-06T13:03:31;34.10;;;0.80;;
3817;SDS011;1924;48.078;11.516;2023-08-06T13:05:58;33.80;;;0.80;;
3817;SDS011;1924;48.078;11.516;2023-08-06T13:08:25;34.00;;;0.80;;
3817;SDS011;1924;48.078;11.516;2023-08-06T13:10:51;34.00;;;0.80;;
3817;SDS011;1924;48.078;11.516;2023-08-06T13:13:18;34.07;;;0.80;;
3817;SDS011;1924;48.078;11.516;2023-08-06T13:15:46;33.90;;;0.80;;
3817;SDS011;1924;48.078;11.516;2023-08-06T13:18:13;34.20;;;0.80;;
3817;SDS011;1924;48.078;11.516;2023-08-06T13:20:40;34.13;;;0.80;;
3817;SDS011;1924;48.078;11.516;2023-08-06T13:23:06;34.20;;;0.80;;
3817;SDS011;1924;48.078;11.516;2023-08-06T13:25:33;34.30;;;0.80;;
3817;SDS011;1924;48.078;11.516;2023-08-06T13:28:02;34.37;;;0.80;;
3817;SDS011;1924;48.078;11.516;2023-08-06T13:30:28;34.40;;;0.80;;
3817;SDS011;1924;48.078;11.516;2023-08-06T13:32:57;34.43;;;0.80;;
3817;SDS011;1924;48.078;11.516;2023-08-06T13:35:23;34.50;;;0.80;;
3817;SDS011;1924;48.078;11.516;2023-08-06T13:37:50;34.50;;;0.80;;
3817;SDS011;1924;48.078;11.516;2023-08-06T13:40:18;34.47;;;0.80;;
3817;SDS011;1924;48.078;11.516;2023-08-06T13:42:45;34.40;;;0.80;;
3817;SDS011;1924;48.078;11.516;2023-08-06T13:45:11;34.60;;;0.80;;
3817;SDS011;1924;48.078;11.516;2023-08-06T13:47:38;34.70;;;0.80;;
3817;SDS011;1924;48.078;11.516;2023-08-06T13:50:06;34.60;;;0.80;;
3817;SDS011;1924;48.078;11.516;2023-08-06T13:52:33;34.70;;;0.80;;
3817;SDS011;1924;48.078;11.516;2023-08-06T13:55:01;34.70;;;0.80;;
3817;SDS011;1924;48.078;11.516;2023-08-06T13:57:28;34.57;;;0.80;;
3817;SDS011;1924;48.078;11.516;2023-08-06T13:59:55;34.63;;;0.80;;
3817;SDS011;1924;48.078;11.516;2023-08-06T14:02:22;34.67;;;0.80;;
3817;SDS011;1924;48.078;11.516;2023-08-06T14:04:50;34.87;;;0.80;;
3817;SDS011;1924;48.078;11.516;2023-08-06T14:07:19;34.50;;;0.80;;
3817;SDS011;1924;48.078;11.516;2023-08-06T14:09:46;34.70;;;0.80;;
3817;SDS011;1924;48.078;11.516;2023-08-06T14:12:14;34.80;;;0.80;;
3817;SDS011;1924;48.078;11.516;2023-08-06T14:14:42;34.70;;;0.80;;
3817;SDS011;1924;48.078;11.516;2023-08-06T14:17:09;34.73;;;0.80;;
3817;SDS011;1924;48.078;11.516;2023-08-06T14:19:35;34.90;;;0.80;;
3817;SDS011;1924;48.078;11.516;2023-08-06T14:22:02;34.83;;;0.80;;
3817;SDS011;1924;48.078;11.516;2023-08-06T14:24:30;34.57;;;0.80;;
3817;SDS011;1924;48.078;11.516;2023-08-06T14:26:57;35.00;;;0.80;;
3817;SDS011;1924;48.078;11.516;2023-08-06T14:29:23;34.57;;;0.80;;
3817;SDS011;1924;48.078;11.516;2023-08-06T14:31:50;34.77;;;0.80;;
3817;SDS011;1924;48.078;11.516;2023-08-06T14:34:17;35.07;;;0.80;;
3817;SDS011;1924;48.078;11.516;2023-08-06T14:36:44;35.00;;;0.80;;
3817;SDS011;1924;48.078;11.516;2023-08-06T14:39:11;35.07;;;0.80;;
3817;SDS011;1924;48.078;11.516;2023-08-06T14:41:39;34.97;;;0.80;;
3817;SDS011;1924;48.078;11.516;2023-08-06T14:44:05;35.27;;;0.80;;
3817;SDS011;1924;48.078;11.516;2023-08-06T14:46:33;35.10;;;0.80;;
3817;SDS011;1924;48.078;11.516;2023-08-06T14:48:59;35.30;;;0.80;;
3817;SDS011;1924;48.078;11.516;2023-08-06T14:51:26;34.87;;;0.80;;
3817;SDS011;1924;48.078;11.516;2023-08-06T14:53:53;35.37;;;0.80;;
3817;SDS011;1924;48.078;11.516;2023-08-06T14:56:19;35.40;;;0.80;;
3817;SDS011;1924;48.078;11.516;2023-08-06T14:58:49;35.47;;;0.83;;
3817;SDS011;1924;48.078;11.516;2023-08-06T15:01:15;35.27;;;0.80;;
3817;SDS011;1924;48.078;11.516;2023-08-06T15:03:42;35.37;;;0.80;;
3817;SDS011;1924;48.078;11.516;2023-08-06T15:06:09;35.33;;;0.80;;
3817;SDS011;1924;48.078;11.516;2023-08-06T15:08:36;35.77;;;0.80;;
3817;SDS011;1924;48.078;11.516;2023-08-06T15:11:04;35.67;;;0.80;;
3817;SDS011;1924;48.078;11.516;2023-08-06T15:13:31;35.60;;;0.80;;
3817;SDS011;1924;48.078;11.516;2023-08-06T15:15:59;35.73;;;0.90;;
3817;SDS011;1924;48.078;11.516;2023-08-06T15:18:25;35.73;;;0.90;;
3817;SDS011;1924;48.078;11.516;2023-08-06T15:20:52;35.67;;;0.80;;
3817;SDS011;1924;48.078;11.516;2023-08-06T15:23:19;35.77;;;0.80;;
3817;SDS011;1924;48.078;11.516;2023-08-06T15:25:46;35.93;;;0.80;;
3817;SDS011;1924;48.078;11.516;2023-08-06T15:28:12;35.77;;;0.80;;
3817;SDS011;1924;48.078;11.516;2023-08-06T15:30:39;35.77;;;0.83;;
3817;SDS011;1924;48.078;11.516;2023-08-06T15:33:11;35.73;;;0.80;;
3817;SDS011;1924;48.078;11.516;2023-08-06T15:35:38;35.77;;;0.80;;
3817;SDS011;1924;48.078;11.516;2023-08-06T15:38:05;35.87;;;0.80;;
3817;SDS011;1924;48.078;11.516;2023-08-06T15:40:31;35.87;;;0.80;;
3817;SDS011;1924;48.078;11.516;2023-08-06T15:42:58;35.83;;;0.80;;
3817;SDS011;1924;48.078;11.516;2023-08-06T15:45:25;35.80;;;0.80;;
3817;SDS011;1924;48.078;11.516;2023-08-06T15:47:52;35.87;;;0.80;;
3817;SDS011;1924;48.078;11.516;2023-08-06T15:50:20;35.70;;;0.80;;
3817;SDS011;1924;48.078;11.516;2023-08-06T15:52:46;35.73;;;0.80;;
3817;SDS011;1924;48.078;11.516;2023-08-06T15:55:13;35.83;;;0.90;;
3817;SDS011;1924;48.078;11.516;2023-08-06T15:57:40;35.80;;;0.80;;
3817;SDS011;1924;48.078;11.516;2023-08-06T16:00:08;35.90;;;0.80;;
3817;SDS011;1924;48.078;11.516;2023-08-06T16:02:35;35.77;;;0.80;;
3817;SDS011;1924;48.078;11.516;2023-08-06T16:05:02;35.67;;;0.80;;
3817;SDS011;1924;48.078;11.516;2023-08-06T16:07:31;35.90;;;0.80;;
3817;SDS011;1924;48.078;11.516;2023-08-06T16:09:57;35.57;;;0.80;;
3817;SDS011;1924;48.078;11.516;2023-08-06T16:12:24;35.67;;;0.80;;
3817;SDS011;1924;48.078;11.516;2023-08-06T16:14:51;35.90;;;0.83;;
3817;SDS011;1924;48.078;11.516;2023-08-06T16:17:18;36.00;;;0.80;;
3817;SDS011;1924;48.078;11.516;2023-08-06T16:19:44;35.93;;;0.80;;
3817;SDS011;1924;48.078;11.516;2023-08-06T16:22:11;36.00;;;0.80;;
3817;SDS011;1924;48.078;11.516;2023-08-06T16:24:42;35.90;;;0.80;;
3817;SDS011;1924;48.078;11.516;2023-08-06T16:27:08;36.17;;;0.80;;
3817;SDS011;1924;48.078;11.516;2023-08-06T16:29:35;35.97;;;0.80;;
3817;SDS011;1924;48.078;11.516;2023-08-06T16:32:02;35.97;;;0.80;;
3817;SDS011;1924;48.078;11.516;2023-08-06T16:34:31;35.93;;;0.80;;
3817;SDS011;1924;48.078;11.516;2023-08-06T16:36:57;36.00;;;0.80;;
3817;SDS011;1924;48.078;11.516;2023-08-06T16:39:25;36.03;;;0.80;;
3817;SDS011;1924;48.078;11.516;2023-08-06T16:41:54;36.07;;;0.80;;
3817;SDS011;1924;48.078;11.516;2023-08-06T16:44:22;36.13;;;0.80;;
3817;SDS011;1924;48.078;11.516;2023-08-06T16:46:49;36.00;;;0.80;;
3817;SDS011;1924;48.078;11.516;2023-08-06T16:49:16;35.97;;;0.80;;
3817;SDS011;1924;48.078;11.516;2023-08-06T16:51:42;35.93;;;0.80;;
3817;SDS011;1924;48.078;11.516;2023-08-06T16:54:09;36.00;;;0.80;;
3817;SDS011;1924;48.078;11.516;2023-08-06T16:56:36;35.57;;;0.80;;
3817;SDS011;1924;48.078;11.516;2023-08-06T16:59:04;35.90;;;0.80;;
3817;SDS011;1924;48.078;11.516;2023-08-06T17:01:31;35.80;;;0.80;;
3817;SDS011;1924;48.078;11.516;2023-08-06T17:03:58;35.70;;;0.80;;
3817;SDS011;1924;48.078;11.516;2023-08-06T17:06:24;35.73;;;0.80;;
3817;SDS011;1924;48.078;11.516;2023-08-06T17:08:51;35.73;;;0.80;;
3817;SDS011;1924;48.078;11.516;2023-08-06T17:11:18;35.97;;;0.80;;
3817;SDS011;1924;48.078;11.516;2023-08-06T17:13:44;35.87;;;0.80;;
3817;SDS011;1924;48.078;11.516;2023-08-06T17:16:12;35.93;;;0.80;;
3817;SDS011;1924;48.078;11.516;2023-08-06T17:18:39;35.97;;;0.80;;
3817;SDS011;1924;48.078;11.516;2023-08-06T17:21:07;36.00;;;0.80;;
3817;SDS011;1924;48.078;11.516;2023-08-06T17:23:34;36.00;;;0.80;;
3817;SDS011;1924;48.078;11.516;2023-08-06T17:26:01;36.07;;;0.80;;
3817;SDS011;1924;48.078;11.516;2023-08-06T17:28:28;36.00;;;0.80;;
3817;SDS011;1924;48.078;11.516;2023-08-06T17:30:54;36.10;;;0.80;;
3817;SDS011;1924;48.078;11.516;2023-08-06T17:33:22;36.10;;;0.87;;
3817;SDS011;1924;48.078;11.516;2023-08-06T17:35:49;36.07;;;0.80;;
3817;SDS011;1924;48.078;11.516;2023-08-06T17:38:16;36.00;;;0.83;;
3817;SDS011;1924;48.078;11.516;2023-08-06T17:40:43;36.10;;;0.80;;
3817;SDS011;1924;48.078;11.516;2023-08-06T17:43:10;36.10;;;0.83;;
3817;SDS011;1924;48.078;11.516;2023-08-06T17:45:36;35.83;;;0.80;;
3817;SDS011;1924;48.078;11.516;2023-08-06T17:48:03;36.03;;;0.80;;
3817;SDS011;1924;48.078;11.516;2023-08-06T17:50:31;36.07;;;0.83;;
3817;SDS011;1924;48.078;11.516;2023-08-06T17:52:58;36.00;;;0.83;;
3817;SDS011;1924;48.078;11.516;2023-08-06T17:55:25;36.03;;;0.80;;
3817;SDS011;1924;48.078;11.516;2023-08-06T17:57:52;36.10;;;0.87;;
3817;SDS011;1924;48.078;11.516;2023-08-06T18:00:19;35.77;;;0.90;;
3817;SDS011;1924;48.078;11.516;2023-08-06T18:02:50;36.00;;;0.80;;
3817;SDS011;1924;48.078;11.516;2023-08-06T18:05:17;36.03;;;0.90;;
3817;SDS011;1924;48.078;11.516;2023-08-06T18:07:45;35.77;;;0.80;;
3817;SDS011;1924;48.078;11.516;2023-08-06T18:10:12;35.83;;;0.83;;
3817;SDS011;1924;48.078;11.516;2023-08-06T18:12:39;35.90;;;0.80;;
3817;SDS011;1924;48.078;11.516;2023-08-06T18:15:07;35.77;;;0.80;;
3817;SDS011;1924;48.078;11.516;2023-08-06T18:17:36;35.77;;;0.80;;
3817;SDS011;1924;48.078;11.516;2023-08-06T18:20:02;35.90;;;0.80;;
3817;SDS011;1924;48.078;11.516;2023-08-06T18:22:30;36.00;;;0.90;;
3817;SDS011;1924;48.078;11.516;2023-08-06T18:24:58;35.73;;;0.80;;
3817;SDS011;1924;48.078;11.516;2023-08-06T18:27:27;35.77;;;0.83;;
3817;SDS011;1924;48.078;11.516;2023-08-06T18:29:54;35.90;;;0.80;;
3817;SDS011;1924;48.078;11.516;2023-08-06T18:32:20;35.87;;;0.80;;
3817;SDS011;1924;48.078;11.516;2023-08-06T18:34:47;35.77;;;0.90;;
3817;SDS011;1924;48.078;11.516;2023-08-06T18:37:14;35.93;;;0.80;;
3817;SDS011;1924;48.078;11.516;2023-08-06T18:39:41;35.90;;;0.80;;
3817;SDS011;1924;48.078;11.516;2023-08-06T18:42:09;35.90;;;0.90;;
3817;SDS011;1924;48.078;11.516;2023-08-06T18:44:36;35.77;;;0.90;;